PWSweather.com
Personal Weather Stations
Station Observations
JOE4SPEED
Jupiter, Fl, Jupiter, FL 33458

Jupiter, FlJupiter, FL 33458

Lat: 26.9373, Lon: -80.1101

Elevation: 12

Station Type: Davis VP 2

http://www.joe4speed.com/wxindex.php

High Low Average
Temperature 84.8°F29.3°F 74.5°F23.6°F 78.0°F25.6°F
Dew Point 70.0°F21.1°F 65.1°F18.4°F 67.2°F19.6°F
Winds 10.4 mph SE16.7 mph SE 2.3 mph 3.7 mph 6.0 mph 9.7 mph
Wind Gusts 17.3 mph27.8 mph 3.5 mph5.6 mph 9.5 mph15.3 mph
Humidity 78% 59% 70%
Pressure 29.99 in1015.60 in 29.89 in1012.20 in -
Precipitation 0.00 in0.00 in - -
Hour Temp Dew Point Humidity Winds Wind Gusts Pressure Precip Precip Rate Daily Precip Total
12:00 AM 75.4°F24.1°C 65.7°F18.7°C 72% 5.8 mph SE9.3 kmh SE 10.4 mph16.7 kmh 29.99 in1015.6 mb - 0.00 in0.0 mm 0.00 in0.0 mm
12:10 AM 75.2°F24.0°C 65.1°F18.4°C 71% 4.6 mph SE7.4 kmh SE 5.8 mph9.3 kmh 29.99 in1015.6 mb - 0.00 in0.0 mm 0.00 in0.0 mm
12:20 AM 75.1°F23.9°C 65.1°F18.4°C 71% 3.5 mph SE5.6 kmh SE 3.5 mph5.6 kmh 29.99 in1015.6 mb - 0.00 in0.0 mm 0.00 in0.0 mm
12:30 AM 75.1°F23.9°C 65.5°F18.6°C 72% 5.8 mph SE9.3 kmh SE 5.8 mph9.3 kmh 29.98 in1015.2 mb - 0.00 in0.0 mm 0.00 in0.0 mm
12:40 AM 75.3°F24.1°C 65.6°F18.7°C 72% 3.5 mph SE5.6 kmh SE 4.6 mph7.4 kmh 29.98 in1015.2 mb - 0.00 in0.0 mm 0.00 in0.0 mm
12:50 AM 75.1°F23.9°C 65.5°F18.6°C 72% 3.5 mph SE5.6 kmh SE 6.9 mph11.1 kmh 29.98 in1015.2 mb - 0.00 in0.0 mm 0.00 in0.0 mm
01:00 AM 74.9°F23.8°C 65.3°F18.5°C 72% 5.8 mph SE9.3 kmh SE 9.2 mph14.8 kmh 29.98 in1015.2 mb - 0.00 in0.0 mm 0.00 in0.0 mm
01:10 AM 74.9°F23.8°C 65.2°F18.4°C 72% 3.5 mph SE5.6 kmh SE 4.6 mph7.4 kmh 29.97 in1014.9 mb - 0.00 in0.0 mm 0.00 in0.0 mm
01:20 AM 74.8°F23.8°C 65.2°F18.4°C 72% 4.6 mph SE7.4 kmh SE 5.8 mph9.3 kmh 29.97 in1014.9 mb - 0.00 in0.0 mm 0.00 in0.0 mm
01:30 AM 74.8°F23.8°C 65.2°F18.4°C 72% 6.9 mph SE11.1 kmh SE 9.2 mph14.8 kmh 29.96 in1014.6 mb - 0.00 in0.0 mm 0.00 in0.0 mm
01:40 AM 74.8°F23.8°C 65.6°F18.7°C 73% 5.8 mph SE9.3 kmh SE 8.1 mph13.0 kmh 29.96 in1014.6 mb - 0.00 in0.0 mm 0.00 in0.0 mm
01:50 AM 74.8°F23.8°C 65.2°F18.4°C 72% 4.6 mph ESE7.4 kmh ESE 6.9 mph11.1 kmh 29.96 in1014.6 mb - 0.00 in0.0 mm 0.00 in0.0 mm
02:00 AM 74.9°F23.8°C 65.3°F18.5°C 72% 5.8 mph ESE9.3 kmh ESE 9.2 mph14.8 kmh 29.95 in1014.2 mb - 0.00 in0.0 mm 0.00 in0.0 mm
02:10 AM 74.9°F23.8°C 65.2°F18.4°C 72% 5.8 mph SE9.3 kmh SE 9.2 mph14.8 kmh 29.95 in1014.2 mb - 0.00 in0.0 mm 0.00 in0.0 mm
02:20 AM 74.7°F23.7°C 65.1°F18.4°C 72% 3.5 mph SE5.6 kmh SE 4.6 mph7.4 kmh 29.95 in1014.2 mb - 0.00 in0.0 mm 0.00 in0.0 mm
02:30 AM 74.5°F23.6°C 65.3°F18.5°C 73% 4.6 mph ESE7.4 kmh ESE 5.8 mph9.3 kmh 29.94 in1013.9 mb - 0.00 in0.0 mm 0.00 in0.0 mm
02:40 AM 74.7°F23.7°C 65.4°F18.6°C 73% 5.8 mph SE9.3 kmh SE 9.2 mph14.8 kmh 29.94 in1013.9 mb - 0.00 in0.0 mm 0.00 in0.0 mm
02:50 AM 74.9°F23.8°C 65.3°F18.5°C 72% 5.8 mph ESE9.3 kmh ESE 10.4 mph16.7 kmh 29.94 in1013.9 mb - 0.00 in0.0 mm 0.00 in0.0 mm
03:00 AM 74.9°F23.8°C 65.2°F18.4°C 72% 4.6 mph ESE7.4 kmh ESE 9.2 mph14.8 kmh 29.93 in1013.5 mb - 0.00 in0.0 mm 0.00 in0.0 mm
03:10 AM 74.9°F23.8°C 65.2°F18.4°C 72% 5.8 mph ESE9.3 kmh ESE 6.9 mph11.1 kmh 29.93 in1013.5 mb - 0.00 in0.0 mm 0.00 in0.0 mm
03:20 AM 74.8°F23.8°C 65.6°F18.7°C 73% 4.6 mph SE7.4 kmh SE 9.2 mph14.8 kmh 29.93 in1013.5 mb - 0.00 in0.0 mm 0.00 in0.0 mm
03:30 AM 74.8°F23.8°C 66.0°F18.9°C 74% 4.6 mph ESE7.4 kmh ESE 5.8 mph9.3 kmh 29.93 in1013.5 mb - 0.00 in0.0 mm 0.00 in0.0 mm
03:40 AM 74.6°F23.7°C 65.8°F18.8°C 74% 4.6 mph ESE7.4 kmh ESE 8.1 mph13.0 kmh 29.93 in1013.5 mb - 0.00 in0.0 mm 0.00 in0.0 mm
03:50 AM 74.6°F23.7°C 66.1°F18.9°C 75% 4.6 mph SE7.4 kmh SE 5.8 mph9.3 kmh 29.93 in1013.5 mb - 0.00 in0.0 mm 0.00 in0.0 mm
04:00 AM 74.7°F23.7°C 66.2°F19.0°C 75% 3.5 mph SE5.6 kmh SE 5.8 mph9.3 kmh 29.92 in1013.2 mb - 0.00 in0.0 mm 0.00 in0.0 mm
04:10 AM 74.9°F23.8°C 66.8°F19.3°C 76% 3.5 mph SE5.6 kmh SE 4.6 mph7.4 kmh 29.92 in1013.2 mb - 0.00 in0.0 mm 0.00 in0.0 mm
04:20 AM 75.1°F23.9°C 67.0°F19.4°C 76% 3.5 mph SE5.6 kmh SE 4.6 mph7.4 kmh 29.92 in1013.2 mb - 0.00 in0.0 mm 0.00 in0.0 mm
04:30 AM 75.0°F23.9°C 66.9°F19.4°C 76% 3.5 mph SE5.6 kmh SE 6.9 mph11.1 kmh 29.92 in1013.2 mb - 0.00 in0.0 mm 0.00 in0.0 mm
04:40 AM 74.8°F23.8°C 66.7°F19.3°C 76% 3.5 mph SE5.6 kmh SE 3.5 mph5.6 kmh 29.92 in1013.2 mb - 0.00 in0.0 mm 0.00 in0.0 mm
04:50 AM 74.7°F23.7°C 66.6°F19.2°C 76% 3.5 mph SE5.6 kmh SE 8.1 mph13.0 kmh 29.92 in1013.2 mb - 0.00 in0.0 mm 0.00 in0.0 mm
05:00 AM 74.6°F23.7°C 66.6°F19.2°C 76% 4.6 mph ESE7.4 kmh ESE 6.9 mph11.1 kmh 29.92 in1013.2 mb - 0.00 in0.0 mm 0.00 in0.0 mm
05:10 AM 74.8°F23.8°C 67.1°F19.5°C 77% 4.6 mph ESE7.4 kmh ESE 8.1 mph13.0 kmh 29.92 in1013.2 mb - 0.00 in0.0 mm 0.00 in0.0 mm
05:20 AM 74.7°F23.7°C 67.1°F19.5°C 77% 4.6 mph SE7.4 kmh SE 6.9 mph11.1 kmh 29.92 in1013.2 mb - 0.00 in0.0 mm 0.00 in0.0 mm
05:30 AM 74.6°F23.7°C 66.1°F18.9°C 75% 3.5 mph SE5.6 kmh SE 4.6 mph7.4 kmh 29.92 in1013.2 mb - 0.00 in0.0 mm 0.00 in0.0 mm
05:40 AM 74.6°F23.7°C 66.1°F18.9°C 75% 4.6 mph SE7.4 kmh SE 6.9 mph11.1 kmh 29.92 in1013.2 mb - 0.00 in0.0 mm 0.00 in0.0 mm
05:50 AM 74.6°F23.7°C 66.2°F19.0°C 75% 3.5 mph SE5.6 kmh SE 5.8 mph9.3 kmh 29.92 in1013.2 mb - 0.00 in0.0 mm 0.00 in0.0 mm
06:00 AM 75.0°F23.9°C 66.9°F19.4°C 76% 6.9 mph ESE11.1 kmh ESE 9.2 mph14.8 kmh 29.92 in1013.2 mb - 0.00 in0.0 mm 0.00 in0.0 mm
06:10 AM 75.0°F23.9°C 66.6°F19.2°C 75% 3.5 mph ESE5.6 kmh ESE 6.9 mph11.1 kmh 29.92 in1013.2 mb - 0.00 in0.0 mm 0.00 in0.0 mm
06:20 AM 75.0°F23.9°C 66.1°F18.9°C 74% 5.8 mph SE9.3 kmh SE 9.2 mph14.8 kmh 29.93 in1013.5 mb - 0.00 in0.0 mm 0.00 in0.0 mm
06:30 AM 75.0°F23.9°C 65.8°F18.8°C 73% 4.6 mph SE7.4 kmh SE 9.2 mph14.8 kmh 29.93 in1013.5 mb - 0.00 in0.0 mm 0.00 in0.0 mm
06:40 AM 75.3°F24.1°C 66.0°F18.9°C 73% 5.8 mph SE9.3 kmh SE 11.5 mph18.5 kmh 29.93 in1013.5 mb - 0.00 in0.0 mm 0.00 in0.0 mm
06:50 AM 75.3°F24.1°C 66.4°F19.1°C 74% 4.6 mph ESE7.4 kmh ESE 8.1 mph13.0 kmh 29.94 in1013.9 mb - 0.00 in0.0 mm 0.00 in0.0 mm
07:00 AM 75.2°F24.0°C 65.9°F18.8°C 73% 5.8 mph ESE9.3 kmh ESE 9.2 mph14.8 kmh 29.94 in1013.9 mb - 0.00 in0.0 mm 0.00 in0.0 mm
07:10 AM 75.2°F24.0°C 65.9°F18.8°C 73% 5.8 mph SE9.3 kmh SE 8.1 mph13.0 kmh 29.95 in1014.2 mb - 0.00 in0.0 mm 0.00 in0.0 mm
07:20 AM 75.3°F24.1°C 66.1°F18.9°C 73% 3.5 mph ESE5.6 kmh ESE 4.6 mph7.4 kmh 29.95 in1014.2 mb - 0.00 in0.0 mm 0.00 in0.0 mm
07:30 AM 75.4°F24.1°C 66.1°F18.9°C 73% 5.8 mph ESE9.3 kmh ESE 8.1 mph13.0 kmh 29.95 in1014.2 mb - 0.00 in0.0 mm 0.00 in0.0 mm
07:40 AM 75.7°F24.3°C 66.8°F19.3°C 74% 5.8 mph SE9.3 kmh SE 5.8 mph9.3 kmh 29.95 in1014.2 mb - 0.00 in0.0 mm 0.00 in0.0 mm
07:50 AM 76.0°F24.4°C 66.7°F19.3°C 73% 5.8 mph SE9.3 kmh SE 8.1 mph13.0 kmh 29.96 in1014.6 mb - 0.00 in0.0 mm 0.00 in0.0 mm
08:00 AM 76.6°F24.8°C 67.7°F19.8°C 74% 6.9 mph SE11.1 kmh SE 11.5 mph18.5 kmh 29.96 in1014.6 mb - 0.00 in0.0 mm 0.00 in0.0 mm
08:10 AM 76.7°F24.8°C 67.8°F19.9°C 74% 4.6 mph ESE7.4 kmh ESE 10.4 mph16.7 kmh 29.96 in1014.6 mb - 0.00 in0.0 mm 0.00 in0.0 mm
08:20 AM 76.7°F24.8°C 67.8°F19.9°C 74% 6.9 mph SE11.1 kmh SE 13.8 mph22.2 kmh 29.96 in1014.6 mb - 0.00 in0.0 mm 0.00 in0.0 mm
08:30 AM 77.1°F25.1°C 68.2°F20.1°C 74% 6.9 mph ESE11.1 kmh ESE 9.2 mph14.8 kmh 29.96 in1014.6 mb - 0.00 in0.0 mm 0.00 in0.0 mm
08:40 AM 77.2°F25.1°C 67.9°F19.9°C 73% 8.1 mph SE13.0 kmh SE 11.5 mph18.5 kmh 29.96 in1014.6 mb - 0.00 in0.0 mm 0.00 in0.0 mm
08:50 AM 77.6°F25.3°C 67.4°F19.7°C 71% 8.1 mph ESE13.0 kmh ESE 10.4 mph16.7 kmh 29.96 in1014.6 mb - 0.00 in0.0 mm 0.00 in0.0 mm
09:00 AM 78.7°F25.9°C 68.1°F20.1°C 70% 4.6 mph ESE7.4 kmh ESE 11.5 mph18.5 kmh 29.96 in1014.6 mb - 0.00 in0.0 mm 0.00 in0.0 mm
09:10 AM 79.2°F26.2°C 67.7°F19.8°C 68% 6.9 mph ESE11.1 kmh ESE 9.2 mph14.8 kmh 29.96 in1014.6 mb - 0.00 in0.0 mm 0.00 in0.0 mm
09:20 AM 79.4°F26.3°C 67.0°F19.4°C 66% 9.2 mph ESE14.8 kmh ESE 13.8 mph22.2 kmh 29.96 in1014.6 mb - 0.00 in0.0 mm 0.00 in0.0 mm
09:30 AM 78.9°F26.1°C 68.3°F20.2°C 70% 2.3 mph SE3.7 kmh SE 4.6 mph7.4 kmh 29.96 in1014.6 mb - 0.00 in0.0 mm 0.00 in0.0 mm
09:40 AM 79.0°F26.1°C 68.0°F20.0°C 69% 5.8 mph SE9.3 kmh SE 11.5 mph18.5 kmh 29.96 in1014.6 mb - 0.00 in0.0 mm 0.00 in0.0 mm
09:50 AM 79.3°F26.3°C 67.8°F19.9°C 68% 10.4 mph SE16.7 kmh SE 16.1 mph25.9 kmh 29.96 in1014.6 mb - 0.00 in0.0 mm 0.00 in0.0 mm
10:00 AM 79.4°F26.3°C 67.9°F19.9°C 68% 8.1 mph SE13.0 kmh SE 11.5 mph18.5 kmh 29.96 in1014.6 mb - 0.00 in0.0 mm 0.00 in0.0 mm
10:10 AM 79.5°F26.4°C 68.0°F20.0°C 68% 9.2 mph ESE14.8 kmh ESE 17.3 mph27.8 kmh 29.96 in1014.6 mb - 0.00 in0.0 mm 0.00 in0.0 mm
10:20 AM 79.6°F26.4°C 67.7°F19.8°C 67% 8.1 mph SSE13.0 kmh SSE 11.5 mph18.5 kmh 29.97 in1014.9 mb - 0.00 in0.0 mm 0.00 in0.0 mm
10:30 AM 79.4°F26.3°C 67.5°F19.7°C 67% 8.1 mph SE13.0 kmh SE 12.7 mph20.4 kmh 29.97 in1014.9 mb - 0.00 in0.0 mm 0.00 in0.0 mm
10:40 AM 79.7°F26.5°C 67.8°F19.9°C 67% 6.9 mph ESE11.1 kmh ESE 11.5 mph18.5 kmh 29.97 in1014.9 mb - 0.00 in0.0 mm 0.00 in0.0 mm
10:50 AM 80.2°F26.8°C 68.2°F20.1°C 67% 4.6 mph SE7.4 kmh SE 8.1 mph13.0 kmh 29.97 in1014.9 mb - 0.00 in0.0 mm 0.00 in0.0 mm
11:00 AM 80.4°F26.9°C 68.0°F20.0°C 66% 6.9 mph ESE11.1 kmh ESE 12.7 mph20.4 kmh 29.97 in1014.9 mb - 0.00 in0.0 mm 0.00 in0.0 mm
11:10 AM 80.6°F27.0°C 67.3°F19.6°C 64% 9.2 mph SE14.8 kmh SE 15.0 mph24.1 kmh 29.97 in1014.9 mb - 0.00 in0.0 mm 0.00 in0.0 mm
11:20 AM 80.3°F26.8°C 67.0°F19.4°C 64% 6.9 mph SE11.1 kmh SE 9.2 mph14.8 kmh 29.97 in1014.9 mb - 0.00 in0.0 mm 0.00 in0.0 mm
11:30 AM 81.3°F27.4°C 68.0°F20.0°C 64% 10.4 mph SE16.7 kmh SE 17.3 mph27.8 kmh 29.97 in1014.9 mb - 0.00 in0.0 mm 0.00 in0.0 mm
11:40 AM 80.7°F27.1°C 67.4°F19.7°C 64% 8.1 mph ESE13.0 kmh ESE 15.0 mph24.1 kmh 29.97 in1014.9 mb - 0.00 in0.0 mm 0.00 in0.0 mm
11:50 AM 81.8°F27.7°C 68.0°F20.0°C 63% 9.2 mph E14.8 kmh E 11.5 mph18.5 kmh 29.97 in1014.9 mb - 0.00 in0.0 mm 0.00 in0.0 mm
12:00 PM 83.3°F28.5°C 68.9°F20.5°C 62% 8.1 mph ESE13.0 kmh ESE 12.7 mph20.4 kmh 29.97 in1014.9 mb - 0.00 in0.0 mm 0.00 in0.0 mm
12:10 PM 83.4°F28.6°C 68.6°F20.3°C 61% 9.2 mph SE14.8 kmh SE 11.5 mph18.5 kmh 29.97 in1014.9 mb - 0.00 in0.0 mm 0.00 in0.0 mm
12:20 PM 83.2°F28.4°C 68.8°F20.4°C 62% 8.1 mph E13.0 kmh E 13.8 mph22.2 kmh 29.96 in1014.6 mb - 0.00 in0.0 mm 0.00 in0.0 mm
12:30 PM 82.8°F28.2°C 68.4°F20.2°C 62% 8.1 mph SE13.0 kmh SE 12.7 mph20.4 kmh 29.96 in1014.6 mb - 0.00 in0.0 mm 0.00 in0.0 mm
12:40 PM 83.6°F28.7°C 69.2°F20.7°C 62% 6.9 mph ESE11.1 kmh ESE 11.5 mph18.5 kmh 29.96 in1014.6 mb - 0.00 in0.0 mm 0.00 in0.0 mm
12:50 PM 84.6°F29.2°C 68.7°F20.4°C 59% 4.6 mph E7.4 kmh E 8.1 mph13.0 kmh 29.96 in1014.6 mb - 0.00 in0.0 mm 0.00 in0.0 mm
01:00 PM 82.8°F28.2°C 68.4°F20.2°C 62% 8.1 mph E13.0 kmh E 12.7 mph20.4 kmh 29.96 in1014.6 mb - 0.00 in0.0 mm 0.00 in0.0 mm
01:10 PM 83.5°F28.6°C 68.6°F20.3°C 61% 8.1 mph SE13.0 kmh SE 10.4 mph16.7 kmh 29.95 in1014.2 mb - 0.00 in0.0 mm 0.00 in0.0 mm
01:20 PM 84.3°F29.1°C 68.9°F20.5°C 60% 6.9 mph ESE11.1 kmh ESE 8.1 mph13.0 kmh 29.95 in1014.2 mb - 0.00 in0.0 mm 0.00 in0.0 mm
01:30 PM 84.6°F29.2°C 69.7°F20.9°C 61% 10.4 mph E16.7 kmh E 12.7 mph20.4 kmh 29.95 in1014.2 mb - 0.00 in0.0 mm 0.00 in0.0 mm
01:40 PM 84.8°F29.3°C 69.3°F20.7°C 60% 4.6 mph E7.4 kmh E 11.5 mph18.5 kmh 29.95 in1014.2 mb - 0.00 in0.0 mm 0.00 in0.0 mm
01:50 PM 83.3°F28.5°C 69.4°F20.8°C 63% 6.9 mph E11.1 kmh E 11.5 mph18.5 kmh 29.95 in1014.2 mb - 0.00 in0.0 mm 0.00 in0.0 mm
02:00 PM 83.2°F28.4°C 69.3°F20.7°C 63% 6.9 mph ESE11.1 kmh ESE 9.2 mph14.8 kmh 29.95 in1014.2 mb - 0.00 in0.0 mm 0.00 in0.0 mm
02:10 PM 82.9°F28.3°C 69.0°F20.6°C 63% 8.1 mph SE13.0 kmh SE 16.1 mph25.9 kmh 29.94 in1013.9 mb - 0.00 in0.0 mm 0.00 in0.0 mm
02:20 PM 83.9°F28.8°C 69.5°F20.8°C 62% 6.9 mph E11.1 kmh E 12.7 mph20.4 kmh 29.94 in1013.9 mb - 0.00 in0.0 mm 0.00 in0.0 mm
02:30 PM 84.6°F29.2°C 69.7°F20.9°C 61% 6.9 mph ESE11.1 kmh ESE 11.5 mph18.5 kmh 29.94 in1013.9 mb - 0.00 in0.0 mm 0.00 in0.0 mm
02:40 PM 82.7°F28.2°C 69.7°F20.9°C 65% 8.1 mph E13.0 kmh E 12.7 mph20.4 kmh 29.93 in1013.5 mb - 0.00 in0.0 mm 0.00 in0.0 mm
02:50 PM 81.3°F27.4°C 69.3°F20.7°C 67% 4.6 mph SE7.4 kmh SE 8.1 mph13.0 kmh 29.94 in1013.9 mb - 0.00 in0.0 mm 0.00 in0.0 mm
03:00 PM 81.2°F27.3°C 69.6°F20.9°C 68% 6.9 mph ESE11.1 kmh ESE 10.4 mph16.7 kmh 29.94 in1013.9 mb - 0.00 in0.0 mm 0.00 in0.0 mm
03:10 PM 80.9°F27.2°C 69.3°F20.7°C 68% 5.8 mph ESE9.3 kmh ESE 13.8 mph22.2 kmh 29.93 in1013.5 mb - 0.00 in0.0 mm 0.00 in0.0 mm
03:20 PM 80.8°F27.1°C 69.3°F20.7°C 68% 4.6 mph E7.4 kmh E 10.4 mph16.7 kmh 29.93 in1013.5 mb - 0.00 in0.0 mm 0.00 in0.0 mm
03:30 PM 80.6°F27.0°C 68.6°F20.3°C 67% 6.9 mph E11.1 kmh E 11.5 mph18.5 kmh 29.93 in1013.5 mb - 0.00 in0.0 mm 0.00 in0.0 mm
03:40 PM 79.8°F26.6°C 68.3°F20.2°C 68% 8.1 mph SE13.0 kmh SE 11.5 mph18.5 kmh 29.92 in1013.2 mb - 0.00 in0.0 mm 0.00 in0.0 mm
03:50 PM 80.8°F27.1°C 67.9°F19.9°C 65% 6.9 mph ESE11.1 kmh ESE 11.5 mph18.5 kmh 29.92 in1013.2 mb - 0.00 in0.0 mm 0.00 in0.0 mm
04:00 PM 81.4°F27.4°C 67.1°F19.5°C 62% 8.1 mph ESE13.0 kmh ESE 12.7 mph20.4 kmh 29.91 in1012.9 mb - 0.00 in0.0 mm 0.00 in0.0 mm
04:10 PM 80.9°F27.2°C 67.1°F19.5°C 63% 5.8 mph ESE9.3 kmh ESE 11.5 mph18.5 kmh 29.91 in1012.9 mb - 0.00 in0.0 mm 0.00 in0.0 mm
04:20 PM 81.0°F27.2°C 66.8°F19.3°C 62% 5.8 mph ESE9.3 kmh ESE 8.1 mph13.0 kmh 29.91 in1012.9 mb - 0.00 in0.0 mm 0.00 in0.0 mm
04:30 PM 80.4°F26.9°C 66.7°F19.3°C 63% 5.8 mph SE9.3 kmh SE 11.5 mph18.5 kmh 29.91 in1012.9 mb - 0.00 in0.0 mm 0.00 in0.0 mm
04:40 PM 79.9°F26.6°C 66.6°F19.2°C 64% 9.2 mph SE14.8 kmh SE 11.5 mph18.5 kmh 29.90 in1012.5 mb - 0.00 in0.0 mm 0.00 in0.0 mm
04:50 PM 79.9°F26.6°C 66.7°F19.3°C 64% 6.9 mph SE11.1 kmh SE 10.4 mph16.7 kmh 29.90 in1012.5 mb - 0.00 in0.0 mm 0.00 in0.0 mm
05:00 PM 78.9°F26.1°C 66.1°F18.9°C 65% 5.8 mph ESE9.3 kmh ESE 10.4 mph16.7 kmh 29.90 in1012.5 mb - 0.00 in0.0 mm 0.00 in0.0 mm
05:10 PM 79.2°F26.2°C 66.8°F19.3°C 66% 5.8 mph SE9.3 kmh SE 8.1 mph13.0 kmh 29.90 in1012.5 mb - 0.00 in0.0 mm 0.00 in0.0 mm
05:20 PM 79.3°F26.3°C 67.0°F19.4°C 66% 4.6 mph SSE7.4 kmh SSE 9.2 mph14.8 kmh 29.90 in1012.5 mb - 0.00 in0.0 mm 0.00 in0.0 mm
05:30 PM 79.1°F26.2°C 66.3°F19.1°C 65% 10.4 mph SE16.7 kmh SE 12.7 mph20.4 kmh 29.90 in1012.5 mb - 0.00 in0.0 mm 0.00 in0.0 mm
05:40 PM 79.1°F26.2°C 66.3°F19.1°C 65% 6.9 mph SE11.1 kmh SE 12.7 mph20.4 kmh 29.90 in1012.5 mb - 0.00 in0.0 mm 0.00 in0.0 mm
05:50 PM 78.7°F25.9°C 66.4°F19.1°C 66% 5.8 mph SE9.3 kmh SE 11.5 mph18.5 kmh 29.90 in1012.5 mb - 0.00 in0.0 mm 0.00 in0.0 mm
06:00 PM 78.7°F25.9°C 66.4°F19.1°C 66% 5.8 mph ESE9.3 kmh ESE 9.2 mph14.8 kmh 29.90 in1012.5 mb - 0.00 in0.0 mm 0.00 in0.0 mm
06:10 PM 78.9°F26.1°C 66.1°F18.9°C 65% 6.9 mph ESE11.1 kmh ESE 6.9 mph11.1 kmh 29.90 in1012.5 mb - 0.00 in0.0 mm 0.00 in0.0 mm
06:20 PM 78.6°F25.9°C 66.8°F19.3°C 67% 4.6 mph SE7.4 kmh SE 17.3 mph27.8 kmh 29.90 in1012.5 mb - 0.00 in0.0 mm 0.00 in0.0 mm
06:30 PM 78.4°F25.8°C 66.1°F18.9°C 66% 4.6 mph SE7.4 kmh SE 5.8 mph9.3 kmh 29.90 in1012.5 mb - 0.00 in0.0 mm 0.00 in0.0 mm
06:40 PM 78.3°F25.7°C 66.0°F18.9°C 66% 8.1 mph SE13.0 kmh SE 10.4 mph16.7 kmh 29.90 in1012.5 mb - 0.00 in0.0 mm 0.00 in0.0 mm
06:50 PM 78.0°F25.6°C 65.3°F18.5°C 65% 6.9 mph SE11.1 kmh SE 11.5 mph18.5 kmh 29.90 in1012.5 mb - 0.00 in0.0 mm 0.00 in0.0 mm
07:00 PM 78.0°F25.6°C 65.7°F18.7°C 66% 4.6 mph SE7.4 kmh SE 10.4 mph16.7 kmh 29.89 in1012.2 mb - 0.00 in0.0 mm 0.00 in0.0 mm
07:10 PM 77.8°F25.4°C 66.8°F19.3°C 69% 8.1 mph SE13.0 kmh SE 13.8 mph22.2 kmh 29.89 in1012.2 mb - 0.00 in0.0 mm 0.00 in0.0 mm
07:20 PM 77.6°F25.3°C 67.0°F19.4°C 70% 4.6 mph SE7.4 kmh SE 8.1 mph13.0 kmh 29.89 in1012.2 mb - 0.00 in0.0 mm 0.00 in0.0 mm
07:30 PM 77.4°F25.2°C 66.8°F19.3°C 70% 3.5 mph ESE5.6 kmh ESE 3.5 mph5.6 kmh 29.89 in1012.2 mb - 0.00 in0.0 mm 0.00 in0.0 mm
07:40 PM 77.4°F25.2°C 67.3°F19.6°C 71% 5.8 mph SE9.3 kmh SE 9.2 mph14.8 kmh 29.89 in1012.2 mb - 0.00 in0.0 mm 0.00 in0.0 mm
07:50 PM 77.3°F25.2°C 67.1°F19.5°C 71% 3.5 mph SE5.6 kmh SE 4.6 mph7.4 kmh 29.89 in1012.2 mb - 0.00 in0.0 mm 0.00 in0.0 mm
08:00 PM 77.1°F25.1°C 66.5°F19.2°C 70% 6.9 mph SE11.1 kmh SE 11.5 mph18.5 kmh 29.90 in1012.5 mb - 0.00 in0.0 mm 0.00 in0.0 mm
08:10 PM 77.1°F25.1°C 66.6°F19.2°C 70% 3.5 mph SE5.6 kmh SE 4.6 mph7.4 kmh 29.90 in1012.5 mb - 0.00 in0.0 mm 0.00 in0.0 mm
08:20 PM 77.1°F25.1°C 67.0°F19.4°C 71% 4.6 mph ESE7.4 kmh ESE 8.1 mph13.0 kmh 29.90 in1012.5 mb - 0.00 in0.0 mm 0.00 in0.0 mm
08:30 PM 77.1°F25.1°C 67.0°F19.4°C 71% 5.8 mph ESE9.3 kmh ESE 8.1 mph13.0 kmh 29.90 in1012.5 mb - 0.00 in0.0 mm 0.00 in0.0 mm
08:40 PM 77.3°F25.2°C 67.5°F19.7°C 72% 4.6 mph ESE7.4 kmh ESE 6.9 mph11.1 kmh 29.90 in1012.5 mb - 0.00 in0.0 mm 0.00 in0.0 mm
08:50 PM 77.3°F25.2°C 68.0°F20.0°C 73% 4.6 mph ESE7.4 kmh ESE 9.2 mph14.8 kmh 29.91 in1012.9 mb - 0.00 in0.0 mm 0.00 in0.0 mm
09:00 PM 77.3°F25.2°C 68.0°F20.0°C 73% 3.5 mph ESE5.6 kmh ESE 3.5 mph5.6 kmh 29.91 in1012.9 mb - 0.00 in0.0 mm 0.00 in0.0 mm
09:10 PM 77.2°F25.1°C 67.9°F19.9°C 73% 3.5 mph ESE5.6 kmh ESE 5.8 mph9.3 kmh 29.91 in1012.9 mb - 0.00 in0.0 mm 0.00 in0.0 mm
09:20 PM 76.9°F24.9°C 67.2°F19.6°C 72% 6.9 mph SE11.1 kmh SE 12.7 mph20.4 kmh 29.91 in1012.9 mb - 0.00 in0.0 mm 0.00 in0.0 mm
09:30 PM 77.0°F25.0°C 67.7°F19.8°C 73% 6.9 mph SE11.1 kmh SE 8.1 mph13.0 kmh 29.91 in1012.9 mb - 0.00 in0.0 mm 0.00 in0.0 mm
09:40 PM 76.9°F24.9°C 67.6°F19.8°C 73% 4.6 mph SE7.4 kmh SE 6.9 mph11.1 kmh 29.91 in1012.9 mb - 0.00 in0.0 mm 0.00 in0.0 mm
09:50 PM 76.9°F24.9°C 67.2°F19.6°C 72% 6.9 mph ESE11.1 kmh ESE 9.2 mph14.8 kmh 29.90 in1012.5 mb - 0.00 in0.0 mm 0.00 in0.0 mm
10:00 PM 77.1°F25.1°C 67.7°F19.8°C 73% 6.9 mph ESE11.1 kmh ESE 10.4 mph16.7 kmh 29.91 in1012.9 mb - 0.00 in0.0 mm 0.00 in0.0 mm
10:10 PM 77.2°F25.1°C 68.2°F20.1°C 74% 6.9 mph SE11.1 kmh SE 11.5 mph18.5 kmh 29.91 in1012.9 mb - 0.00 in0.0 mm 0.00 in0.0 mm
10:20 PM 77.2°F25.1°C 68.7°F20.4°C 75% 8.1 mph SE13.0 kmh SE 9.2 mph14.8 kmh 29.91 in1012.9 mb - 0.00 in0.0 mm 0.00 in0.0 mm
10:30 PM 77.3°F25.2°C 68.8°F20.4°C 75% 6.9 mph SE11.1 kmh SE 11.5 mph18.5 kmh 29.90 in1012.5 mb - 0.00 in0.0 mm 0.00 in0.0 mm
10:40 PM 77.3°F25.2°C 68.7°F20.4°C 75% 5.8 mph SE9.3 kmh SE 11.5 mph18.5 kmh 29.90 in1012.5 mb - 0.00 in0.0 mm 0.00 in0.0 mm
10:50 PM 77.3°F25.2°C 69.1°F20.6°C 76% 4.6 mph ESE7.4 kmh ESE 10.4 mph16.7 kmh 29.90 in1012.5 mb - 0.00 in0.0 mm 0.00 in0.0 mm
11:00 PM 77.3°F25.2°C 69.1°F20.6°C 76% 5.8 mph SE9.3 kmh SE 6.9 mph11.1 kmh 29.90 in1012.5 mb - 0.00 in0.0 mm 0.00 in0.0 mm
11:10 PM 77.4°F25.2°C 69.6°F20.9°C 77% 8.1 mph SE13.0 kmh SE 12.7 mph20.4 kmh 29.89 in1012.2 mb - 0.00 in0.0 mm 0.00 in0.0 mm
11:20 PM 77.4°F25.2°C 70.0°F21.1°C 78% 6.9 mph SE11.1 kmh SE 10.4 mph16.7 kmh 29.89 in1012.2 mb - 0.00 in0.0 mm 0.00 in0.0 mm
11:30 PM 77.4°F25.2°C 70.0°F21.1°C 78% 5.8 mph ESE9.3 kmh ESE 8.1 mph13.0 kmh 29.89 in1012.2 mb - 0.00 in0.0 mm 0.00 in0.0 mm
11:40 PM 77.4°F25.2°C 70.0°F21.1°C 78% 6.9 mph SE11.1 kmh SE 9.2 mph14.8 kmh 29.89 in1012.2 mb - 0.00 in0.0 mm 0.00 in0.0 mm
11:50 PM 77.3°F25.2°C 69.9°F21.1°C 78% 8.1 mph SE13.0 kmh SE 11.5 mph18.5 kmh 29.89 in1012.2 mb - 0.00 in0.0 mm 0.00 in0.0 mm